createdAt,value
2023-01-04T00:01:59.208Z,97151.41
2023-01-04T00:07:01.604Z,97166.03
2023-01-04T00:12:04.116Z,97147.88
2023-01-04T00:17:06.425Z,97184.00
2023-01-04T00:22:08.589Z,97130.97
2023-01-04T00:27:10.873Z,97159.06
2023-01-04T00:32:13.243Z,97152.34
2023-01-04T00:37:15.599Z,97184.13
2023-01-04T00:42:17.788Z,97201.25
2023-01-04T00:47:19.973Z,97180.16
2023-01-04T00:52:22.139Z,97197.44
2023-01-04T00:57:24.366Z,97191.38
2023-01-04T01:02:26.724Z,97176.03
2023-01-04T01:07:29.204Z,97198.28
2023-01-04T01:12:31.559Z,97210.34
2023-01-04T01:17:35.063Z,97214.84
2023-01-04T01:22:37.248Z,97177.94
2023-01-04T01:27:39.616Z,97188.13
2023-01-04T01:32:41.834Z,97212.28
2023-01-04T01:37:44.086Z,97209.53
2023-01-04T01:42:46.347Z,97195.72
2023-01-04T01:47:51.093Z,97175.19
2023-01-04T01:52:55.034Z,97167.59
2023-01-04T01:57:58.968Z,97182.19
2023-01-04T02:03:11.617Z,97192.53
2023-01-04T02:08:15.362Z,97176.22
2023-01-04T02:13:25.387Z,97170.84
2023-01-04T02:18:34.506Z,97192.28
2023-01-04T02:23:46.002Z,97216.25
2023-01-04T02:29:09.991Z,97209.25
2023-01-04T02:34:59.184Z,97195.41
2023-01-04T02:40:21.319Z,97166.03
2023-01-04T02:45:29.707Z,97201.94
2023-01-04T02:50:36.639Z,97130.03
2023-01-04T02:56:07.699Z,97182.25
2023-01-04T03:01:35.303Z,97189.03
2023-01-04T03:06:53.024Z,97181.63
2023-01-04T03:12:32.651Z,97117.41
2023-01-04T03:17:45.723Z,97168.50
2023-01-04T03:23:14.966Z,97151.31
2023-01-04T03:28:39.535Z,97136.78
2023-01-04T03:34:00.632Z,97167.72
2023-01-04T03:39:37.063Z,97152.41
2023-01-04T03:45:11.929Z,97184.19
2023-01-04T03:50:23.213Z,97158.53
2023-01-04T03:55:29.685Z,97158.47
2023-01-04T04:00:33.311Z,97175.16
2023-01-04T04:06:00.439Z,97155.41
2023-01-04T04:11:22.081Z,97152.38
2023-01-04T04:16:41.194Z,97165.06
2023-01-04T04:21:43.432Z,97190.94
2023-01-04T04:26:45.929Z,97161.28
2023-01-04T04:31:48.441Z,97149.38
2023-01-04T04:36:50.828Z,97196.50
2023-01-04T04:41:53.007Z,97207.88
2023-01-04T04:46:55.328Z,97164.22
2023-01-04T04:51:57.677Z,97181.47
2023-01-04T04:56:59.857Z,97189.19
2023-01-04T05:02:02.447Z,97188.38
2023-01-04T05:07:10.651Z,97183.19
2023-01-04T05:12:32.944Z,97157.53
2023-01-04T05:17:35.287Z,97168.00
2023-01-04T05:22:37.491Z,97169.72
2023-01-04T05:27:39.982Z,97168.16
2023-01-04T05:32:42.164Z,97189.41
2023-01-04T05:37:44.773Z,97211.59
2023-01-04T05:42:47.977Z,97229.53
2023-01-04T05:47:52.135Z,97225.19
2023-01-04T05:52:56.647Z,97218.38
2023-01-04T05:57:59.149Z,97205.44
2023-01-04T06:03:09.131Z,97229.34
2023-01-04T06:08:11.739Z,97242.34
2023-01-04T06:13:14.087Z,97236.22
2023-01-04T06:18:16.246Z,97238.28
2023-01-04T06:23:18.458Z,97231.38
2023-01-04T06:28:20.670Z,97243.28
2023-01-04T06:33:22.927Z,97239.69
2023-01-04T06:38:25.213Z,97251.31
2023-01-04T06:43:27.374Z,97270.97
2023-01-04T06:48:29.980Z,97278.28
2023-01-04T06:53:32.233Z,97227.34
2023-01-04T06:58:34.397Z,97244.97
2023-01-04T07:03:36.750Z,97243.19
2023-01-04T07:08:38.971Z,97253.84
2023-01-04T07:13:41.191Z,97237.00
2023-01-04T07:18:43.581Z,97261.47
2023-01-04T07:23:50.047Z,97269.88
2023-01-04T07:29:10.883Z,97246.47
2023-01-04T07:34:14.544Z,97237.53
2023-01-04T07:39:18.565Z,97254.09
2023-01-04T07:44:22.544Z,97255.22
2023-01-04T07:49:24.916Z,97261.03
2023-01-04T07:54:27.278Z,97253.53
2023-01-04T07:59:29.889Z,97240.72
2023-01-04T08:04:35.182Z,97281.47
2023-01-04T08:09:37.652Z,97270.66
2023-01-04T08:14:40.096Z,97283.81
2023-01-04T08:19:42.453Z,97245.91
2023-01-04T08:24:44.762Z,97278.63
2023-01-04T08:29:47.353Z,97292.72
2023-01-04T08:34:49.470Z,97291.00
2023-01-04T08:39:51.921Z,97291.97
2023-01-04T08:44:58.959Z,97271.91
2023-01-04T08:50:08.217Z,97277.97
2023-01-04T08:55:15.185Z,97252.38
2023-01-04T09:00:21.954Z,97290.06
2023-01-04T09:05:26.313Z,97288.56
2023-01-04T09:10:29.019Z,97269.31
2023-01-04T09:15:32.556Z,97282.56
2023-01-04T09:20:34.723Z,97271.09
2023-01-04T09:25:40.322Z,97283.69
2023-01-04T09:30:42.624Z,97272.53
2023-01-04T09:35:44.785Z,97252.84
2023-01-04T09:40:49.694Z,97258.09
2023-01-04T09:45:56.268Z,97217.59
2023-01-04T09:51:02.461Z,97224.94
2023-01-04T09:56:21.474Z,97240.00
2023-01-04T10:01:33.781Z,97245.28
2023-01-04T10:06:37.974Z,97249.47
2023-01-04T10:12:00.290Z,97232.66
2023-01-04T10:17:28.143Z,97240.41
2023-01-04T10:22:40.014Z,97235.13
2023-01-04T10:27:57.580Z,97236.72
2023-01-04T10:33:04.925Z,97219.44
2023-01-04T10:38:24.448Z,97200.72
2023-01-04T10:44:09.579Z,97223.00
2023-01-04T10:49:30.005Z,97211.88
2023-01-04T10:54:46.998Z,97210.38
2023-01-04T11:00:00.738Z,97201.38
2023-01-04T11:05:22.383Z,97199.41
2023-01-04T11:10:31.897Z,97164.63
2023-01-04T11:15:35.493Z,97200.94
2023-01-04T11:20:38.567Z,97172.44
2023-01-04T11:25:55.836Z,97191.53
2023-01-04T11:31:05.119Z,97194.91
2023-01-04T11:36:07.507Z,97159.81
2023-01-04T11:41:17.296Z,97200.13
2023-01-04T11:46:19.553Z,97206.22
2023-01-04T11:51:27.868Z,97195.06
2023-01-04T11:56:32.303Z,97162.03
2023-01-04T12:01:38.059Z,97157.50
2023-01-04T12:06:48.082Z,97125.44
2023-01-04T12:11:54.580Z,97176.31
2023-01-04T12:17:23.475Z,97174.78
2023-01-04T12:22:34.499Z,97172.31
2023-01-04T12:27:37.026Z,97161.53
2023-01-04T12:32:41.572Z,97169.09
2023-01-04T12:37:49.940Z,97167.00
2023-01-04T12:43:26.315Z,97167.78
2023-01-04T12:48:47.301Z,97175.59
2023-01-04T12:53:57.304Z,97150.84
2023-01-04T12:59:25.202Z,97158.66
2023-01-04T13:04:41.464Z,97152.09
2023-01-04T13:09:57.979Z,97187.84
2023-01-04T13:15:08.563Z,97170.09
2023-01-04T13:20:23.725Z,97192.97
2023-01-04T13:25:26.963Z,97166.28
2023-01-04T13:30:34.148Z,97216.06
2023-01-04T13:35:36.725Z,97184.31
2023-01-04T13:40:49.113Z,97223.44
2023-01-04T13:46:08.477Z,97206.00
2023-01-04T13:51:32.072Z,97217.47
2023-01-04T13:56:38.218Z,97219.97
2023-01-04T14:01:45.832Z,97224.59
2023-01-04T14:06:51.205Z,97199.56
2023-01-04T14:12:08.680Z,97223.69
2023-01-04T14:17:16.650Z,97240.09
2023-01-04T14:22:38.550Z,97234.25
2023-01-04T14:27:45.845Z,97242.78
2023-01-04T14:33:21.903Z,97227.97
2023-01-04T14:38:24.365Z,97206.69
2023-01-04T14:43:35.926Z,97222.19
2023-01-04T14:48:38.294Z,97221.94
2023-01-04T14:53:40.712Z,97211.25
2023-01-04T14:58:43.817Z,97222.09
2023-01-04T15:03:46.367Z,97237.56
2023-01-04T15:08:49.175Z,97223.81
2023-01-04T15:13:51.442Z,97230.13
2023-01-04T15:18:53.642Z,97232.81
2023-01-04T15:23:55.858Z,97270.06
2023-01-04T15:28:58.247Z,97222.94
2023-01-04T15:34:00.508Z,97237.94
2023-01-04T15:39:02.998Z,97247.78
2023-01-04T15:44:05.318Z,97258.50
2023-01-04T15:49:13.351Z,97257.97
2023-01-04T15:54:22.010Z,97254.69
2023-01-04T15:59:24.968Z,97250.97
2023-01-04T16:04:27.744Z,97257.03
2023-01-04T16:09:31.257Z,97224.53
2023-01-04T16:14:33.596Z,97215.19
2023-01-04T16:19:35.765Z,97249.06
2023-01-04T16:25:09.240Z,97254.97
2023-01-04T16:30:01.106Z,97261.88
2023-01-04T16:35:04.635Z,97254.53
2023-01-04T16:40:08.968Z,97237.03
2023-01-04T16:45:12.176Z,97260.28
2023-01-04T16:50:14.521Z,97251.44
2023-01-04T16:55:23.390Z,97236.00
2023-01-04T17:00:26.314Z,97225.41
2023-01-04T17:05:29.486Z,97251.75
2023-01-04T17:10:31.933Z,97216.97
2023-01-04T17:15:43.392Z,97240.72
2023-01-04T17:20:53.963Z,97242.38
2023-01-04T17:26:02.595Z,97252.28
2023-01-04T17:31:16.938Z,97247.28
2023-01-04T17:36:21.145Z,97254.56
2023-01-04T17:41:25.316Z,97278.69
2023-01-04T17:46:30.966Z,97250.16
2023-01-04T17:51:34.253Z,97282.00
2023-01-04T17:56:39.641Z,97229.63
2023-01-04T18:01:41.900Z,97252.47
2023-01-04T18:06:44.366Z,97253.03
2023-01-04T18:11:46.614Z,97284.06
2023-01-04T18:16:58.655Z,97269.88
2023-01-04T18:22:01.752Z,97275.53
2023-01-04T18:27:21.518Z,97264.41
2023-01-04T18:32:26.654Z,97283.31
2023-01-04T18:37:28.965Z,97256.81
2023-01-04T18:42:32.063Z,97235.88
2023-01-04T18:47:35.266Z,97272.56
2023-01-04T18:52:37.515Z,97265.13
2023-01-04T18:57:40.349Z,97259.53
2023-01-04T19:02:42.843Z,97220.34
2023-01-04T19:07:45.367Z,97254.72
2023-01-04T19:12:47.802Z,97222.69
2023-01-04T19:17:50.876Z,97245.94
2023-01-04T19:22:53.108Z,97245.94
2023-01-04T19:27:55.490Z,97269.56
2023-01-04T19:32:57.869Z,97256.31
2023-01-04T19:38:00.175Z,97243.03
2023-01-04T19:43:02.671Z,97221.91
2023-01-04T19:48:05.215Z,97240.34
2023-01-04T19:53:07.603Z,97255.78
2023-01-04T19:58:09.936Z,97220.84
2023-01-04T20:03:12.249Z,97217.59
2023-01-04T20:08:14.914Z,97215.91
2023-01-04T20:13:17.306Z,97227.06
2023-01-04T20:18:20.350Z,97233.50
2023-01-04T20:23:22.934Z,97218.34
2023-01-04T20:28:25.587Z,97206.91
2023-01-04T20:33:28.012Z,97203.09
2023-01-04T20:38:31.602Z,97216.16
2023-01-04T20:43:37.575Z,97187.25
2023-01-04T20:48:41.141Z,97184.28
2023-01-04T20:53:43.700Z,97219.28
2023-01-04T20:58:47.421Z,97168.94
2023-01-04T21:03:50.217Z,97213.28
2023-01-04T21:08:55.262Z,97185.09
2023-01-04T21:13:57.817Z,97154.84
2023-01-04T21:19:00.356Z,97148.75
2023-01-04T21:24:02.720Z,97146.50
2023-01-04T21:29:05.087Z,97154.91
2023-01-04T21:34:13.040Z,97148.34
2023-01-04T21:39:17.458Z,97156.72
2023-01-04T21:44:20.070Z,97152.91
2023-01-04T21:49:22.329Z,97132.16
2023-01-04T21:54:24.793Z,97142.28
2023-01-04T21:59:27.081Z,97132.00
2023-01-04T22:04:29.350Z,97135.69
2023-01-04T22:09:31.865Z,97107.50
2023-01-04T22:14:35.085Z,97114.91
2023-01-04T22:19:37.291Z,97085.63
2023-01-04T22:24:39.480Z,97108.13
2023-01-04T22:29:41.804Z,97083.69
2023-01-04T22:34:44.032Z,97074.72
2023-01-04T22:39:46.317Z,97087.78
2023-01-04T22:44:48.647Z,97096.41
2023-01-04T22:49:53.341Z,97098.75
2023-01-04T22:54:55.868Z,97057.38
2023-01-04T22:59:58.076Z,97050.91
2023-01-04T23:05:00.330Z,97046.47
2023-01-04T23:10:02.710Z,97034.81
2023-01-04T23:15:05.358Z,97057.28
2023-01-04T23:20:10.521Z,97040.66
2023-01-04T23:25:13.167Z,97044.88
2023-01-04T23:30:16.696Z,97030.25
2023-01-04T23:35:18.978Z,96983.81
2023-01-04T23:40:21.327Z,97037.78
2023-01-04T23:45:24.226Z,97022.03
2023-01-04T23:50:26.448Z,97002.53
2023-01-04T23:55:28.954Z,96988.84
